sensor_id;sensor_type;location;lat;lon;timestamp;P1;durP1;ratioP1;P2;durP2;ratioP2
70253;SDS011;57649;42.968;1.608;2024-03-02T00:00:49;6.70;;;4.38;;
70253;SDS011;57649;42.968;1.608;2024-03-02T00:03:16;7.55;;;4.68;;
70253;SDS011;57649;42.968;1.608;2024-03-02T00:05:41;9.40;;;4.72;;
70253;SDS011;57649;42.968;1.608;2024-03-02T00:08:07;7.57;;;4.63;;
70253;SDS011;57649;42.968;1.608;2024-03-02T00:10:37;8.63;;;4.80;;
70253;SDS011;57649;42.968;1.608;2024-03-02T00:13:06;8.77;;;4.90;;
70253;SDS011;57649;42.968;1.608;2024-03-02T00:15:39;11.25;;;5.63;;
70253;SDS011;57649;42.968;1.608;2024-03-02T00:18:12;7.53;;;4.55;;
70253;SDS011;57649;42.968;1.608;2024-03-02T00:20:40;8.02;;;5.10;;
70253;SDS011;57649;42.968;1.608;2024-03-02T00:23:07;11.77;;;5.82;;
70253;SDS011;57649;42.968;1.608;2024-03-02T00:25:40;7.35;;;4.15;;
70253;SDS011;57649;42.968;1.608;2024-03-02T00:33:12;7.13;;;4.30;;
70253;SDS011;57649;42.968;1.608;2024-03-02T00:35:38;10.07;;;5.03;;
70253;SDS011;57649;42.968;1.608;2024-03-02T00:38:06;7.90;;;4.63;;
70253;SDS011;57649;42.968;1.608;2024-03-02T00:40:32;9.95;;;4.78;;
70253;SDS011;57649;42.968;1.608;2024-03-02T00:42:57;9.13;;;4.40;;
70253;SDS011;57649;42.968;1.608;2024-03-02T00:45:24;8.30;;;4.40;;
70253;SDS011;57649;42.968;1.608;2024-03-02T00:47:50;7.72;;;4.20;;
70253;SDS011;57649;42.968;1.608;2024-03-02T00:50:16;7.88;;;3.95;;
70253;SDS011;57649;42.968;1.608;2024-03-02T00:52:42;7.00;;;4.00;;
70253;SDS011;57649;42.968;1.608;2024-03-02T00:55:08;6.47;;;3.45;;
70253;SDS011;57649;42.968;1.608;2024-03-02T00:57:34;8.68;;;3.85;;
70253;SDS011;57649;42.968;1.608;2024-03-02T01:00:00;7.25;;;4.00;;
70253;SDS011;57649;42.968;1.608;2024-03-02T01:02:25;5.35;;;4.05;;
70253;SDS011;57649;42.968;1.608;2024-03-02T01:04:51;5.95;;;3.75;;
70253;SDS011;57649;42.968;1.608;2024-03-02T01:07:17;7.05;;;4.30;;
70253;SDS011;57649;42.968;1.608;2024-03-02T01:09:42;8.50;;;4.43;;
70253;SDS011;57649;42.968;1.608;2024-03-02T01:12:08;5.75;;;3.50;;
70253;SDS011;57649;42.968;1.608;2024-03-02T01:14:34;5.50;;;3.70;;
70253;SDS011;57649;42.968;1.608;2024-03-02T01:17:00;5.50;;;3.22;;
70253;SDS011;57649;42.968;1.608;2024-03-02T01:19:28;5.72;;;3.33;;
70253;SDS011;57649;42.968;1.608;2024-03-02T01:21:53;6.45;;;3.92;;
70253;SDS011;57649;42.968;1.608;2024-03-02T01:24:19;5.80;;;3.22;;
70253;SDS011;57649;42.968;1.608;2024-03-02T01:26:44;7.32;;;3.25;;
70253;SDS011;57649;42.968;1.608;2024-03-02T01:29:09;6.82;;;4.50;;
70253;SDS011;57649;42.968;1.608;2024-03-02T01:31:35;8.63;;;4.10;;
70253;SDS011;57649;42.968;1.608;2024-03-02T01:34:00;7.63;;;4.30;;
70253;SDS011;57649;42.968;1.608;2024-03-02T01:36:26;7.78;;;4.40;;
70253;SDS011;57649;42.968;1.608;2024-03-02T01:38:51;8.77;;;4.25;;
70253;SDS011;57649;42.968;1.608;2024-03-02T01:41:16;6.80;;;3.63;;
70253;SDS011;57649;42.968;1.608;2024-03-02T01:43:42;6.30;;;3.20;;
70253;SDS011;57649;42.968;1.608;2024-03-02T01:46:07;6.10;;;3.58;;
70253;SDS011;57649;42.968;1.608;2024-03-02T01:48:34;5.00;;;2.95;;
70253;SDS011;57649;42.968;1.608;2024-03-02T01:50:59;5.05;;;2.80;;
70253;SDS011;57649;42.968;1.608;2024-03-02T01:53:24;3.78;;;2.42;;
70253;SDS011;57649;42.968;1.608;2024-03-02T01:55:50;3.78;;;2.45;;
70253;SDS011;57649;42.968;1.608;2024-03-02T01:58:15;7.82;;;4.10;;
70253;SDS011;57649;42.968;1.608;2024-03-02T02:00:41;5.65;;;3.72;;
70253;SDS011;57649;42.968;1.608;2024-03-02T02:03:06;5.85;;;3.80;;
70253;SDS011;57649;42.968;1.608;2024-03-02T02:05:32;7.03;;;3.67;;
70253;SDS011;57649;42.968;1.608;2024-03-02T02:08:00;7.40;;;4.03;;
70253;SDS011;57649;42.968;1.608;2024-03-02T02:10:26;5.00;;;3.22;;
70253;SDS011;57649;42.968;1.608;2024-03-02T02:12:51;6.82;;;3.47;;
70253;SDS011;57649;42.968;1.608;2024-03-02T02:15:24;7.90;;;3.67;;
70253;SDS011;57649;42.968;1.608;2024-03-02T02:17:53;6.43;;;3.42;;
70253;SDS011;57649;42.968;1.608;2024-03-02T02:20:22;6.18;;;3.78;;
70253;SDS011;57649;42.968;1.608;2024-03-02T02:22:59;7.05;;;4.20;;
70253;SDS011;57649;42.968;1.608;2024-03-02T02:25:25;9.18;;;4.38;;
70253;SDS011;57649;42.968;1.608;2024-03-02T02:27:52;5.97;;;3.70;;
70253;SDS011;57649;42.968;1.608;2024-03-02T02:30:18;6.47;;;3.90;;
70253;SDS011;57649;42.968;1.608;2024-03-02T02:32:51;7.60;;;4.88;;
70253;SDS011;57649;42.968;1.608;2024-03-02T02:35:17;6.28;;;3.78;;
70253;SDS011;57649;42.968;1.608;2024-03-02T02:37:42;6.60;;;3.95;;
70253;SDS011;57649;42.968;1.608;2024-03-02T02:40:09;7.85;;;3.60;;
70253;SDS011;57649;42.968;1.608;2024-03-02T02:42:35;6.35;;;4.20;;
70253;SDS011;57649;42.968;1.608;2024-03-02T02:45:00;7.25;;;3.58;;
70253;SDS011;57649;42.968;1.608;2024-03-02T02:47:25;7.05;;;3.75;;
70253;SDS011;57649;42.968;1.608;2024-03-02T02:49:51;6.32;;;3.72;;
70253;SDS011;57649;42.968;1.608;2024-03-02T02:52:16;8.70;;;3.80;;
70253;SDS011;57649;42.968;1.608;2024-03-02T02:54:42;5.55;;;3.00;;
70253;SDS011;57649;42.968;1.608;2024-03-02T02:57:08;18.77;;;7.90;;
70253;SDS011;57649;42.968;1.608;2024-03-02T02:59:35;10.82;;;4.07;;
70253;SDS011;57649;42.968;1.608;2024-03-02T03:02:00;7.63;;;4.05;;
70253;SDS011;57649;42.968;1.608;2024-03-02T03:04:26;6.90;;;3.80;;
70253;SDS011;57649;42.968;1.608;2024-03-02T03:06:51;6.10;;;3.70;;
70253;SDS011;57649;42.968;1.608;2024-03-02T03:09:16;5.22;;;3.25;;
70253;SDS011;57649;42.968;1.608;2024-03-02T03:11:42;5.72;;;3.42;;
70253;SDS011;57649;42.968;1.608;2024-03-02T03:14:07;5.10;;;3.60;;
70253;SDS011;57649;42.968;1.608;2024-03-02T03:16:32;10.98;;;5.90;;
70253;SDS011;57649;42.968;1.608;2024-03-02T03:18:58;23.13;;;12.90;;
70253;SDS011;57649;42.968;1.608;2024-03-02T03:21:23;21.77;;;12.63;;
70253;SDS011;57649;42.968;1.608;2024-03-02T03:23:49;10.15;;;6.53;;
70253;SDS011;57649;42.968;1.608;2024-03-02T03:26:14;7.22;;;4.43;;
70253;SDS011;57649;42.968;1.608;2024-03-02T03:28:40;5.53;;;3.08;;
70253;SDS011;57649;42.968;1.608;2024-03-02T03:31:05;5.32;;;3.10;;
70253;SDS011;57649;42.968;1.608;2024-03-02T03:33:31;5.50;;;3.33;;
70253;SDS011;57649;42.968;1.608;2024-03-02T03:35:56;4.57;;;3.00;;
70253;SDS011;57649;42.968;1.608;2024-03-02T03:38:21;5.68;;;3.38;;
70253;SDS011;57649;42.968;1.608;2024-03-02T03:40:47;5.53;;;2.67;;
70253;SDS011;57649;42.968;1.608;2024-03-02T03:43:12;4.60;;;3.08;;
70253;SDS011;57649;42.968;1.608;2024-03-02T03:45:38;5.95;;;3.40;;
70253;SDS011;57649;42.968;1.608;2024-03-02T03:48:03;5.90;;;3.30;;
70253;SDS011;57649;42.968;1.608;2024-03-02T03:50:29;4.07;;;2.50;;
70253;SDS011;57649;42.968;1.608;2024-03-02T03:52:54;4.55;;;2.70;;
70253;SDS011;57649;42.968;1.608;2024-03-02T03:55:20;5.97;;;2.92;;
70253;SDS011;57649;42.968;1.608;2024-03-02T03:57:45;5.80;;;3.55;;
70253;SDS011;57649;42.968;1.608;2024-03-02T04:00:11;4.97;;;2.60;;
70253;SDS011;57649;42.968;1.608;2024-03-02T04:02:37;4.50;;;2.80;;
70253;SDS011;57649;42.968;1.608;2024-03-02T04:05:02;5.43;;;2.90;;
70253;SDS011;57649;42.968;1.608;2024-03-02T04:07:30;8.23;;;3.05;;
70253;SDS011;57649;42.968;1.608;2024-03-02T04:09:55;4.22;;;2.58;;
70253;SDS011;57649;42.968;1.608;2024-03-02T04:12:21;4.47;;;2.80;;
70253;SDS011;57649;42.968;1.608;2024-03-02T04:14:46;9.10;;;2.92;;
70253;SDS011;57649;42.968;1.608;2024-03-02T04:17:12;6.32;;;2.80;;
70253;SDS011;57649;42.968;1.608;2024-03-02T04:19:38;5.55;;;3.33;;
70253;SDS011;57649;42.968;1.608;2024-03-02T04:22:03;3.90;;;2.58;;
70253;SDS011;57649;42.968;1.608;2024-03-02T04:24:29;4.10;;;2.67;;
70253;SDS011;57649;42.968;1.608;2024-03-02T04:26:55;5.10;;;2.30;;
70253;SDS011;57649;42.968;1.608;2024-03-02T04:29:20;8.63;;;2.47;;
70253;SDS011;57649;42.968;1.608;2024-03-02T04:31:45;5.50;;;2.80;;
70253;SDS011;57649;42.968;1.608;2024-03-02T04:34:11;4.97;;;2.72;;
70253;SDS011;57649;42.968;1.608;2024-03-02T04:36:36;5.35;;;3.33;;
70253;SDS011;57649;42.968;1.608;2024-03-02T04:39:02;6.03;;;2.70;;
70253;SDS011;57649;42.968;1.608;2024-03-02T04:41:27;5.90;;;2.70;;
70253;SDS011;57649;42.968;1.608;2024-03-02T04:43:52;4.25;;;2.70;;
70253;SDS011;57649;42.968;1.608;2024-03-02T04:46:18;4.88;;;2.20;;
70253;SDS011;57649;42.968;1.608;2024-03-02T04:48:43;3.28;;;2.28;;
70253;SDS011;57649;42.968;1.608;2024-03-02T04:51:09;4.68;;;2.30;;
70253;SDS011;57649;42.968;1.608;2024-03-02T04:53:36;6.53;;;2.38;;
70253;SDS011;57649;42.968;1.608;2024-03-02T04:56:01;3.60;;;2.17;;
70253;SDS011;57649;42.968;1.608;2024-03-02T04:58:47;5.90;;;2.38;;
70253;SDS011;57649;42.968;1.608;2024-03-02T05:01:12;3.95;;;2.00;;
70253;SDS011;57649;42.968;1.608;2024-03-02T05:03:37;5.10;;;2.33;;
70253;SDS011;57649;42.968;1.608;2024-03-02T05:06:03;4.68;;;2.63;;
70253;SDS011;57649;42.968;1.608;2024-03-02T05:08:29;5.43;;;2.97;;
70253;SDS011;57649;42.968;1.608;2024-03-02T05:10:54;4.03;;;2.63;;
70253;SDS011;57649;42.968;1.608;2024-03-02T05:13:20;5.90;;;2.72;;
70253;SDS011;57649;42.968;1.608;2024-03-02T05:15:46;5.38;;;2.45;;
70253;SDS011;57649;42.968;1.608;2024-03-02T05:18:11;5.95;;;3.15;;
70253;SDS011;57649;42.968;1.608;2024-03-02T05:20:37;6.80;;;3.05;;
70253;SDS011;57649;42.968;1.608;2024-03-02T05:23:02;6.50;;;2.50;;
70253;SDS011;57649;42.968;1.608;2024-03-02T05:25:28;5.38;;;2.67;;
70253;SDS011;57649;42.968;1.608;2024-03-02T05:27:53;4.78;;;2.60;;
70253;SDS011;57649;42.968;1.608;2024-03-02T05:30:19;6.05;;;2.80;;
70253;SDS011;57649;42.968;1.608;2024-03-02T05:32:44;4.15;;;2.42;;
70253;SDS011;57649;42.968;1.608;2024-03-02T05:35:09;7.35;;;2.40;;
70253;SDS011;57649;42.968;1.608;2024-03-02T05:37:36;6.72;;;2.53;;
70253;SDS011;57649;42.968;1.608;2024-03-02T05:40:01;4.65;;;2.58;;
70253;SDS011;57649;42.968;1.608;2024-03-02T05:42:27;6.18;;;2.80;;
70253;SDS011;57649;42.968;1.608;2024-03-02T05:44:53;4.65;;;2.60;;
70253;SDS011;57649;42.968;1.608;2024-03-02T05:47:18;4.68;;;2.45;;
70253;SDS011;57649;42.968;1.608;2024-03-02T05:49:43;4.10;;;2.30;;
70253;SDS011;57649;42.968;1.608;2024-03-02T05:52:09;4.82;;;3.08;;
70253;SDS011;57649;42.968;1.608;2024-03-02T05:54:35;3.92;;;2.70;;
70253;SDS011;57649;42.968;1.608;2024-03-02T05:57:01;8.35;;;2.67;;
70253;SDS011;57649;42.968;1.608;2024-03-02T05:59:41;5.53;;;3.05;;
70253;SDS011;57649;42.968;1.608;2024-03-02T06:02:07;5.22;;;2.63;;
70253;SDS011;57649;42.968;1.608;2024-03-02T06:04:32;7.65;;;3.05;;
70253;SDS011;57649;42.968;1.608;2024-03-02T06:06:58;7.85;;;3.80;;
70253;SDS011;57649;42.968;1.608;2024-03-02T06:09:23;6.00;;;3.83;;
70253;SDS011;57649;42.968;1.608;2024-03-02T06:11:49;5.75;;;3.75;;
70253;SDS011;57649;42.968;1.608;2024-03-02T06:14:15;5.70;;;2.55;;
70253;SDS011;57649;42.968;1.608;2024-03-02T06:16:40;6.25;;;2.95;;
70253;SDS011;57649;42.968;1.608;2024-03-02T06:19:05;6.90;;;3.75;;
70253;SDS011;57649;42.968;1.608;2024-03-02T06:21:32;6.18;;;3.00;;
70253;SDS011;57649;42.968;1.608;2024-03-02T06:23:57;8.05;;;3.38;;
70253;SDS011;57649;42.968;1.608;2024-03-02T06:26:22;5.20;;;2.92;;
70253;SDS011;57649;42.968;1.608;2024-03-02T06:28:48;4.90;;;3.10;;
70253;SDS011;57649;42.968;1.608;2024-03-02T06:31:13;10.10;;;5.97;;
70253;SDS011;57649;42.968;1.608;2024-03-02T06:33:39;4.95;;;3.08;;
70253;SDS011;57649;42.968;1.608;2024-03-02T06:36:05;6.00;;;3.70;;
70253;SDS011;57649;42.968;1.608;2024-03-02T06:38:33;5.63;;;3.40;;
70253;SDS011;57649;42.968;1.608;2024-03-02T06:40:59;7.15;;;3.60;;
70253;SDS011;57649;42.968;1.608;2024-03-02T06:43:24;7.38;;;3.63;;
70253;SDS011;57649;42.968;1.608;2024-03-02T06:45:50;6.70;;;3.67;;
70253;SDS011;57649;42.968;1.608;2024-03-02T06:48:16;6.45;;;3.80;;
70253;SDS011;57649;42.968;1.608;2024-03-02T06:50:47;6.23;;;3.90;;
70253;SDS011;57649;42.968;1.608;2024-03-02T06:53:13;5.75;;;3.55;;
70253;SDS011;57649;42.968;1.608;2024-03-02T06:55:38;7.53;;;3.60;;
70253;SDS011;57649;42.968;1.608;2024-03-02T06:58:04;5.82;;;3.33;;
70253;SDS011;57649;42.968;1.608;2024-03-02T07:00:29;6.75;;;4.32;;
70253;SDS011;57649;42.968;1.608;2024-03-02T07:02:55;9.70;;;3.55;;
70253;SDS011;57649;42.968;1.608;2024-03-02T07:05:20;6.53;;;3.47;;
70253;SDS011;57649;42.968;1.608;2024-03-02T07:07:46;7.60;;;2.97;;
70253;SDS011;57649;42.968;1.608;2024-03-02T07:10:11;6.82;;;3.80;;
70253;SDS011;57649;42.968;1.608;2024-03-02T07:12:37;4.88;;;3.20;;
70253;SDS011;57649;42.968;1.608;2024-03-02T07:15:03;5.85;;;3.25;;
70253;SDS011;57649;42.968;1.608;2024-03-02T07:17:29;6.15;;;3.47;;
70253;SDS011;57649;42.968;1.608;2024-03-02T07:19:55;8.13;;;3.85;;
70253;SDS011;57649;42.968;1.608;2024-03-02T07:22:21;7.55;;;3.60;;
70253;SDS011;57649;42.968;1.608;2024-03-02T07:24:46;6.13;;;3.75;;
70253;SDS011;57649;42.968;1.608;2024-03-02T07:27:12;10.57;;;4.40;;
70253;SDS011;57649;42.968;1.608;2024-03-02T07:29:38;8.30;;;3.65;;
70253;SDS011;57649;42.968;1.608;2024-03-02T07:32:05;6.93;;;4.15;;
70253;SDS011;57649;42.968;1.608;2024-03-02T07:34:31;6.60;;;3.72;;
70253;SDS011;57649;42.968;1.608;2024-03-02T07:36:56;7.88;;;4.43;;
70253;SDS011;57649;42.968;1.608;2024-03-02T07:39:22;6.13;;;3.75;;
70253;SDS011;57649;42.968;1.608;2024-03-02T07:41:47;6.65;;;3.80;;
70253;SDS011;57649;42.968;1.608;2024-03-02T07:44:13;6.70;;;3.83;;
70253;SDS011;57649;42.968;1.608;2024-03-02T07:46:43;8.73;;;4.63;;
70253;SDS011;57649;42.968;1.608;2024-03-02T07:49:09;7.45;;;4.28;;
70253;SDS011;57649;42.968;1.608;2024-03-02T07:51:34;9.82;;;4.32;;
70253;SDS011;57649;42.968;1.608;2024-03-02T07:54:01;7.63;;;4.60;;
70253;SDS011;57649;42.968;1.608;2024-03-02T07:56:26;7.60;;;4.65;;
70253;SDS011;57649;42.968;1.608;2024-03-02T07:58:52;5.88;;;3.85;;
70253;SDS011;57649;42.968;1.608;2024-03-02T08:01:18;8.88;;;4.45;;
70253;SDS011;57649;42.968;1.608;2024-03-02T08:03:43;8.13;;;4.15;;
70253;SDS011;57649;42.968;1.608;2024-03-02T08:06:13;7.47;;;4.28;;
70253;SDS011;57649;42.968;1.608;2024-03-02T08:08:40;7.32;;;4.40;;
70253;SDS011;57649;42.968;1.608;2024-03-02T08:11:05;6.70;;;4.30;;
70253;SDS011;57649;42.968;1.608;2024-03-02T08:13:31;8.35;;;4.85;;
70253;SDS011;57649;42.968;1.608;2024-03-02T08:15:56;9.70;;;4.20;;
70253;SDS011;57649;42.968;1.608;2024-03-02T08:18:22;6.90;;;3.63;;
70253;SDS011;57649;42.968;1.608;2024-03-02T08:20:47;7.00;;;4.20;;
70253;SDS011;57649;42.968;1.608;2024-03-02T08:23:12;6.55;;;3.65;;
70253;SDS011;57649;42.968;1.608;2024-03-02T08:25:38;8.02;;;3.47;;
70253;SDS011;57649;42.968;1.608;2024-03-02T08:28:03;5.28;;;3.65;;
70253;SDS011;57649;42.968;1.608;2024-03-02T08:30:29;5.53;;;3.35;;
70253;SDS011;57649;42.968;1.608;2024-03-02T08:32:55;5.53;;;3.05;;
70253;SDS011;57649;42.968;1.608;2024-03-02T08:35:20;4.70;;;3.00;;
70253;SDS011;57649;42.968;1.608;2024-03-02T08:37:47;6.25;;;3.00;;
70253;SDS011;57649;42.968;1.608;2024-03-02T08:40:13;5.55;;;2.80;;
70253;SDS011;57649;42.968;1.608;2024-03-02T08:42:39;3.75;;;2.60;;
70253;SDS011;57649;42.968;1.608;2024-03-02T08:45:04;5.10;;;2.80;;
70253;SDS011;57649;42.968;1.608;2024-03-02T08:47:30;4.82;;;2.67;;
70253;SDS011;57649;42.968;1.608;2024-03-02T08:49:56;4.22;;;2.40;;
70253;SDS011;57649;42.968;1.608;2024-03-02T08:52:21;6.18;;;2.90;;
70253;SDS011;57649;42.968;1.608;2024-03-02T08:54:47;8.25;;;3.15;;
70253;SDS011;57649;42.968;1.608;2024-03-02T08:57:12;5.70;;;2.45;;
70253;SDS011;57649;42.968;1.608;2024-03-02T08:59:37;5.85;;;2.72;;
70253;SDS011;57649;42.968;1.608;2024-03-02T09:02:03;6.30;;;3.33;;
70253;SDS011;57649;42.968;1.608;2024-03-02T09:04:29;6.97;;;4.45;;
70253;SDS011;57649;42.968;1.608;2024-03-02T09:06:54;5.82;;;3.30;;
70253;SDS011;57649;42.968;1.608;2024-03-02T09:09:20;4.70;;;2.83;;
70253;SDS011;57649;42.968;1.608;2024-03-02T09:11:46;7.13;;;3.65;;
70253;SDS011;57649;42.968;1.608;2024-03-02T09:14:11;5.82;;;2.80;;
70253;SDS011;57649;42.968;1.608;2024-03-02T09:16:37;5.35;;;2.85;;
70253;SDS011;57649;42.968;1.608;2024-03-02T09:19:05;4.95;;;2.97;;
70253;SDS011;57649;42.968;1.608;2024-03-02T09:21:30;6.32;;;3.05;;
70253;SDS011;57649;42.968;1.608;2024-03-02T09:23:55;5.65;;;2.50;;
70253;SDS011;57649;42.968;1.608;2024-03-02T09:26:21;5.47;;;2.72;;
70253;SDS011;57649;42.968;1.608;2024-03-02T09:28:47;4.70;;;2.50;;
70253;SDS011;57649;42.968;1.608;2024-03-02T09:31:13;6.32;;;2.72;;
70253;SDS011;57649;42.968;1.608;2024-03-02T09:33:38;5.03;;;2.63;;
70253;SDS011;57649;42.968;1.608;2024-03-02T09:36:16;4.97;;;2.50;;
70253;SDS011;57649;42.968;1.608;2024-03-02T09:38:42;5.97;;;2.38;;
70253;SDS011;57649;42.968;1.608;2024-03-02T09:41:07;3.47;;;2.25;;
70253;SDS011;57649;42.968;1.608;2024-03-02T09:43:33;5.13;;;2.60;;
70253;SDS011;57649;42.968;1.608;2024-03-02T09:45:58;5.07;;;3.42;;
70253;SDS011;57649;42.968;1.608;2024-03-02T09:48:24;3.80;;;2.63;;
70253;SDS011;57649;42.968;1.608;2024-03-02T09:50:49;6.45;;;2.70;;
70253;SDS011;57649;42.968;1.608;2024-03-02T09:53:15;5.78;;;2.72;;
70253;SDS011;57649;42.968;1.608;2024-03-02T09:55:41;5.65;;;4.22;;
70253;SDS011;57649;42.968;1.608;2024-03-02T09:58:11;7.38;;;4.03;;
70253;SDS011;57649;42.968;1.608;2024-03-02T10:00:37;6.72;;;4.30;;
70253;SDS011;57649;42.968;1.608;2024-03-02T10:03:02;7.97;;;3.95;;
70253;SDS011;57649;42.968;1.608;2024-03-02T10:05:29;17.10;;;9.57;;
70253;SDS011;57649;42.968;1.608;2024-03-02T10:07:59;9.93;;;5.13;;
70253;SDS011;57649;42.968;1.608;2024-03-02T10:10:26;8.70;;;4.30;;
70253;SDS011;57649;42.968;1.608;2024-03-02T10:13:04;9.02;;;4.20;;
70253;SDS011;57649;42.968;1.608;2024-03-02T10:15:33;7.85;;;3.92;;
70253;SDS011;57649;42.968;1.608;2024-03-02T10:17:58;8.70;;;3.55;;
70253;SDS011;57649;42.968;1.608;2024-03-02T10:20:27;7.32;;;3.13;;
70253;SDS011;57649;42.968;1.608;2024-03-02T10:25:32;6.18;;;4.25;;
70253;SDS011;57649;42.968;1.608;2024-03-02T10:27:58;7.25;;;4.25;;
70253;SDS011;57649;42.968;1.608;2024-03-02T10:30:25;11.10;;;5.90;;
70253;SDS011;57649;42.968;1.608;2024-03-02T10:32:53;14.10;;;7.45;;
70253;SDS011;57649;42.968;1.608;2024-03-02T10:35:20;10.90;;;6.88;;
70253;SDS011;57649;42.968;1.608;2024-03-02T10:37:47;7.07;;;3.90;;
70253;SDS011;57649;42.968;1.608;2024-03-02T10:40:13;5.85;;;3.00;;
70253;SDS011;57649;42.968;1.608;2024-03-02T10:42:39;6.07;;;3.30;;
70253;SDS011;57649;42.968;1.608;2024-03-02T10:45:07;6.28;;;3.33;;
70253;SDS011;57649;42.968;1.608;2024-03-02T10:47:36;7.78;;;4.03;;
70253;SDS011;57649;42.968;1.608;2024-03-02T10:50:04;6.78;;;3.92;;
70253;SDS011;57649;42.968;1.608;2024-03-02T10:52:39;9.75;;;4.50;;
70253;SDS011;57649;42.968;1.608;2024-03-02T10:55:05;9.23;;;5.00;;
70253;SDS011;57649;42.968;1.608;2024-03-02T10:57:42;9.07;;;4.10;;
70253;SDS011;57649;42.968;1.608;2024-03-02T11:00:15;9.55;;;4.97;;
70253;SDS011;57649;42.968;1.608;2024-03-02T11:02:49;7.60;;;5.50;;
70253;SDS011;57649;42.968;1.608;2024-03-02T11:05:31;7.93;;;5.03;;
70253;SDS011;57649;42.968;1.608;2024-03-02T11:08:03;9.02;;;4.78;;
70253;SDS011;57649;42.968;1.608;2024-03-02T11:10:34;9.52;;;4.40;;
70253;SDS011;57649;42.968;1.608;2024-03-02T11:15:30;9.07;;;4.90;;
70253;SDS011;57649;42.968;1.608;2024-03-02T11:17:59;8.88;;;4.10;;
70253;SDS011;57649;42.968;1.608;2024-03-02T11:20:25;8.27;;;4.88;;
70253;SDS011;57649;42.968;1.608;2024-03-02T11:22:52;8.15;;;3.80;;
70253;SDS011;57649;42.968;1.608;2024-03-02T11:25:24;8.30;;;5.10;;
70253;SDS011;57649;42.968;1.608;2024-03-02T11:32:59;9.90;;;6.10;;
70253;SDS011;57649;42.968;1.608;2024-03-02T11:35:25;8.98;;;4.35;;
70253;SDS011;57649;42.968;1.608;2024-03-02T11:37:51;9.93;;;5.28;;
70253;SDS011;57649;42.968;1.608;2024-03-02T11:40:27;11.18;;;4.32;;
70253;SDS011;57649;42.968;1.608;2024-03-02T11:42:53;13.25;;;6.80;;
70253;SDS011;57649;42.968;1.608;2024-03-02T11:45:22;11.88;;;5.45;;
70253;SDS011;57649;42.968;1.608;2024-03-02T11:47:56;9.18;;;3.58;;
70253;SDS011;57649;42.968;1.608;2024-03-02T11:50:33;5.40;;;2.70;;
70253;SDS011;57649;42.968;1.608;2024-03-02T11:52:59;6.88;;;3.08;;
70253;SDS011;57649;42.968;1.608;2024-03-02T11:55:25;6.97;;;4.60;;
70253;SDS011;57649;42.968;1.608;2024-03-02T11:57:54;10.23;;;6.72;;
70253;SDS011;57649;42.968;1.608;2024-03-02T12:00:20;8.20;;;3.38;;
70253;SDS011;57649;42.968;1.608;2024-03-02T12:02:46;7.95;;;4.18;;
70253;SDS011;57649;42.968;1.608;2024-03-02T12:05:17;10.27;;;3.33;;
70253;SDS011;57649;42.968;1.608;2024-03-02T12:07:44;6.63;;;3.00;;
70253;SDS011;57649;42.968;1.608;2024-03-02T12:10:11;9.07;;;3.47;;
70253;SDS011;57649;42.968;1.608;2024-03-02T12:12:37;8.43;;;5.72;;
70253;SDS011;57649;42.968;1.608;2024-03-02T12:15:02;13.95;;;7.95;;
70253;SDS011;57649;42.968;1.608;2024-03-02T12:17:28;10.70;;;6.22;;
70253;SDS011;57649;42.968;1.608;2024-03-02T12:19:54;12.35;;;7.22;;
70253;SDS011;57649;42.968;1.608;2024-03-02T12:22:19;10.30;;;5.60;;
70253;SDS011;57649;42.968;1.608;2024-03-02T12:24:46;8.90;;;5.93;;
70253;SDS011;57649;42.968;1.608;2024-03-02T12:27:12;8.38;;;5.28;;
70253;SDS011;57649;42.968;1.608;2024-03-02T12:29:40;9.02;;;5.72;;
70253;SDS011;57649;42.968;1.608;2024-03-02T12:32:05;10.18;;;6.70;;
70253;SDS011;57649;42.968;1.608;2024-03-02T12:34:31;16.17;;;11.60;;
70253;SDS011;57649;42.968;1.608;2024-03-02T12:36:57;11.27;;;4.25;;
70253;SDS011;57649;42.968;1.608;2024-03-02T12:39:22;8.90;;;5.32;;
70253;SDS011;57649;42.968;1.608;2024-03-02T12:41:48;9.52;;;4.43;;
70253;SDS011;57649;42.968;1.608;2024-03-02T12:44:15;10.88;;;6.18;;
70253;SDS011;57649;42.968;1.608;2024-03-02T12:46:41;8.60;;;5.45;;
70253;SDS011;57649;42.968;1.608;2024-03-02T12:49:07;11.38;;;6.45;;
70253;SDS011;57649;42.968;1.608;2024-03-02T12:51:36;7.93;;;4.65;;
70253;SDS011;57649;42.968;1.608;2024-03-02T12:54:01;9.13;;;4.90;;
70253;SDS011;57649;42.968;1.608;2024-03-02T12:56:28;9.13;;;5.13;;
70253;SDS011;57649;42.968;1.608;2024-03-02T12:58:54;12.45;;;5.25;;
70253;SDS011;57649;42.968;1.608;2024-03-02T13:01:20;8.93;;;5.18;;
70253;SDS011;57649;42.968;1.608;2024-03-02T13:03:47;9.65;;;5.43;;
70253;SDS011;57649;42.968;1.608;2024-03-02T13:06:14;11.82;;;6.30;;
70253;SDS011;57649;42.968;1.608;2024-03-02T13:08:39;13.93;;;7.07;;
70253;SDS011;57649;42.968;1.608;2024-03-02T13:11:05;10.80;;;6.10;;
70253;SDS011;57649;42.968;1.608;2024-03-02T13:13:32;11.65;;;7.30;;
70253;SDS011;57649;42.968;1.608;2024-03-02T13:15:57;13.38;;;7.70;;
70253;SDS011;57649;42.968;1.608;2024-03-02T13:18:23;9.80;;;6.13;;
70253;SDS011;57649;42.968;1.608;2024-03-02T13:20:49;10.70;;;7.18;;
70253;SDS011;57649;42.968;1.608;2024-03-02T13:23:14;12.75;;;6.53;;
70253;SDS011;57649;42.968;1.608;2024-03-02T13:25:39;11.38;;;7.70;;
70253;SDS011;57649;42.968;1.608;2024-03-02T13:28:05;10.40;;;7.03;;
70253;SDS011;57649;42.968;1.608;2024-03-02T13:30:31;22.70;;;12.95;;
70253;SDS011;57649;42.968;1.608;2024-03-02T13:32:57;15.13;;;10.40;;
70253;SDS011;57649;42.968;1.608;2024-03-02T13:35:23;11.75;;;8.50;;
70253;SDS011;57649;42.968;1.608;2024-03-02T13:37:48;14.90;;;7.55;;
70253;SDS011;57649;42.968;1.608;2024-03-02T13:40:15;13.02;;;7.75;;
70253;SDS011;57649;42.968;1.608;2024-03-02T13:42:45;11.88;;;7.30;;
70253;SDS011;57649;42.968;1.608;2024-03-02T13:45:20;8.15;;;5.93;;
70253;SDS011;57649;42.968;1.608;2024-03-02T13:47:45;10.27;;;6.78;;
70253;SDS011;57649;42.968;1.608;2024-03-02T13:50:10;11.02;;;7.13;;
70253;SDS011;57649;42.968;1.608;2024-03-02T13:52:36;11.23;;;7.85;;
70253;SDS011;57649;42.968;1.608;2024-03-02T13:55:01;8.55;;;5.28;;
70253;SDS011;57649;42.968;1.608;2024-03-02T13:57:27;7.10;;;4.35;;
70253;SDS011;57649;42.968;1.608;2024-03-02T14:00:02;9.57;;;5.43;;
70253;SDS011;57649;42.968;1.608;2024-03-02T14:02:35;8.93;;;5.10;;
70253;SDS011;57649;42.968;1.608;2024-03-02T14:05:01;9.27;;;6.00;;
70253;SDS011;57649;42.968;1.608;2024-03-02T14:07:26;14.90;;;5.45;;
70253;SDS011;57649;42.968;1.608;2024-03-02T14:09:52;8.93;;;5.32;;
70253;SDS011;57649;42.968;1.608;2024-03-02T14:12:17;11.43;;;7.88;;
70253;SDS011;57649;42.968;1.608;2024-03-02T14:14:43;10.02;;;6.95;;
70253;SDS011;57649;42.968;1.608;2024-03-02T14:17:08;11.77;;;6.85;;
70253;SDS011;57649;42.968;1.608;2024-03-02T14:19:39;11.07;;;6.45;;
70253;SDS011;57649;42.968;1.608;2024-03-02T14:22:04;9.48;;;6.70;;
70253;SDS011;57649;42.968;1.608;2024-03-02T14:24:30;12.13;;;6.03;;
70253;SDS011;57649;42.968;1.608;2024-03-02T14:26:55;10.75;;;7.50;;
70253;SDS011;57649;42.968;1.608;2024-03-02T14:29:22;16.77;;;9.25;;
70253;SDS011;57649;42.968;1.608;2024-03-02T14:31:48;10.07;;;6.15;;
70253;SDS011;57649;42.968;1.608;2024-03-02T14:34:14;7.47;;;5.28;;
70253;SDS011;57649;42.968;1.608;2024-03-02T14:36:40;8.73;;;5.47;;
70253;SDS011;57649;42.968;1.608;2024-03-02T14:39:08;7.18;;;4.28;;
70253;SDS011;57649;42.968;1.608;2024-03-02T14:41:35;7.15;;;4.85;;
70253;SDS011;57649;42.968;1.608;2024-03-02T14:44:01;7.82;;;5.15;;
70253;SDS011;57649;42.968;1.608;2024-03-02T14:46:26;7.97;;;4.47;;
70253;SDS011;57649;42.968;1.608;2024-03-02T14:48:52;8.77;;;4.90;;
70253;SDS011;57649;42.968;1.608;2024-03-02T14:51:17;8.60;;;5.82;;
70253;SDS011;57649;42.968;1.608;2024-03-02T14:53:43;11.70;;;6.10;;
70253;SDS011;57649;42.968;1.608;2024-03-02T14:56:10;13.70;;;5.70;;